Time;durP1;ratioP1;P1;durP2;ratioP2;P2;SDS_P1;SDS_P2;PMS_P1;PMS_P2;Temp;Humidity;BMP_temperature;BMP_pressure;BME280_temperature;BME280_humidity;BME280_pressure;Samples;Min_cycle;Max_cycle;Signal;HPM_P1;HPM_P2
2021/01/09 00:00:04;;;;;;;3.47;1.65;;;;;;;2.51;47.30;101947.53;5035218;23;20375;-70
2021/01/09 00:02:40;;;;;;;3.20;1.50;;;;;;;2.53;47.30;101951.00;5060337;28;20048;-70
2021/01/09 00:05:10;;;;;;;3.10;1.05;;;;;;;2.32;47.54;101952.50;5061273;28;20051;-72
2021/01/09 00:07:36;;;;;;;3.20;1.48;;;;;;;2.46;47.07;101946.63;5033679;28;20040;-72
2021/01/09 00:10:07;;;;;;;2.80;1.13;;;;;;;2.51;47.18;101944.97;5032049;28;20058;-70
2021/01/09 00:12:34;;;;;;;3.25;0.85;;;;;;;2.50;47.12;101948.41;5019239;28;20052;-72
2021/01/09 00:15:00;;;;;;;2.28;1.15;;;;;;;2.50;47.52;101953.56;5001038;28;20049;-71
2021/01/09 00:17:25;;;;;;;2.83;1.25;;;;;;;2.43;47.81;101946.63;5018959;28;20391;-71
2021/01/09 00:19:51;;;;;;;5.07;1.55;;;;;;;2.41;47.98;101950.88;5015176;28;20033;-70
2021/01/09 00:22:17;;;;;;;3.80;1.17;;;;;;;2.30;48.01;101951.63;5001477;28;20282;-71
2021/01/09 00:24:42;;;;;;;3.90;1.52;;;;;;;2.34;47.85;101952.53;5023201;28;20136;-70
2021/01/09 00:27:12;;;;;;;1.85;0.98;;;;;;;2.27;47.85;101943.84;5020064;28;20033;-71
2021/01/09 00:29:41;;;;;;;3.05;1.20;;;;;;;2.19;47.93;101945.47;5016009;28;20037;-70
2021/01/09 00:32:07;;;;;;;2.20;1.02;;;;;;;2.04;48.11;101945.28;5018335;28;20037;-72
2021/01/09 00:34:33;;;;;;;3.03;1.02;;;;;;;1.86;48.53;101948.47;5038892;28;20037;-72
2021/01/09 00:36:59;;;;;;;2.72;1.10;;;;;;;1.84;48.40;101957.91;5017836;28;20026;-72
2021/01/09 00:39:24;;;;;;;4.72;1.40;;;;;;;1.67;48.59;101950.81;5015653;28;20136;-72
2021/01/09 00:41:50;;;;;;;7.78;1.77;;;;;;;1.59;48.53;101962.69;5017404;28;20494;-72
2021/01/09 00:44:16;;;;;;;14.70;4.63;;;;;;;1.40;49.04;101961.56;5016196;28;20037;-72
2021/01/09 00:46:42;;;;;;;13.90;4.43;;;;;;;1.29;49.54;101968.22;5016818;28;20112;-71
2021/01/09 00:49:07;;;;;;;8.05;2.78;;;;;;;1.29;49.47;101969.09;5000414;28;20060;-71
2021/01/09 00:51:33;;;;;;;5.53;1.50;;;;;;;1.33;49.80;101964.88;5023308;28;20025;-72
2021/01/09 00:53:58;;;;;;;2.33;1.13;;;;;;;1.39;49.82;101967.50;5038221;28;20046;-72
2021/01/09 00:56:24;;;;;;;4.82;1.50;;;;;;;1.46;49.89;101971.09;5034457;28;20571;-72
2021/01/09 00:58:49;;;;;;;5.20;1.45;;;;;;;1.54;49.79;101968.66;5034870;28;20051;-72
2021/01/09 01:01:15;;;;;;;4.15;1.13;;;;;;;1.53;49.71;101972.94;5016006;28;20096;-72
2021/01/09 01:03:42;;;;;;;2.13;0.90;;;;;;;1.62;49.45;101970.50;5034835;28;20475;-72
2021/01/09 01:06:11;;;;;;;2.40;1.20;;;;;;;1.67;49.80;101979.16;5018404;28;20044;-72
2021/01/09 01:08:37;;;;;;;3.05;0.85;;;;;;;1.68;49.96;101972.28;5037391;28;20037;-71
2021/01/09 01:11:05;;;;;;;1.77;1.00;;;;;;;1.56;50.00;101967.81;5033092;28;20233;-71
2021/01/09 01:13:30;;;;;;;4.38;1.52;;;;;;;1.46;50.22;101963.34;5016373;28;20939;-72
2021/01/09 01:15:56;;;;;;;5.70;1.25;;;;;;;1.36;50.18;101967.47;5016545;28;20124;-72
2021/01/09 01:18:22;;;;;;;1.77;0.65;;;;;;;1.35;50.05;101968.34;5016486;28;20033;-72
2021/01/09 01:20:49;;;;;;;1.60;0.60;;;;;;;1.25;50.58;101971.59;5034190;28;20048;-72
2021/01/09 01:23:16;;;;;;;3.10;0.77;;;;;;;1.35;50.46;101975.19;5000935;28;20041;-72
2021/01/09 01:25:41;;;;;;;2.13;0.80;;;;;;;1.39;50.41;101980.41;5018796;28;20045;-72
2021/01/09 01:28:06;;;;;;;5.60;0.95;;;;;;;1.48;50.54;101975.44;5017745;28;20056;-72
2021/01/09 01:30:32;;;;;;;2.47;1.33;;;;;;;1.55;50.29;101985.81;5033261;28;20037;-72
2021/01/09 01:32:57;;;;;;;2.45;1.08;;;;;;;1.58;50.47;101980.75;5016136;28;20034;-71
2021/01/09 01:35:23;;;;;;;2.58;0.75;;;;;;;1.66;50.12;101994.59;5035447;28;20021;-74
2021/01/09 01:37:49;;;;;;;2.50;0.73;;;;;;;1.61;50.40;101991.09;5022313;28;20029;-72
2021/01/09 01:40:14;;;;;;;3.22;0.70;;;;;;;1.74;50.02;101993.00;5020715;28;20094;-71
2021/01/09 01:42:40;;;;;;;3.90;0.90;;;;;;;1.77;49.60;101993.03;5038620;28;20033;-72
2021/01/09 01:45:08;;;;;;;4.00;1.08;;;;;;;1.66;49.88;101994.59;5044080;28;20391;-72
2021/01/09 01:47:34;;;;;;;2.80;0.98;;;;;;;1.72;49.33;101999.84;5019737;28;20033;-72
2021/01/09 01:50:00;;;;;;;2.25;0.73;;;;;;;1.70;49.31;101991.22;5021718;28;20312;-72
2021/01/09 01:52:26;;;;;;;2.13;1.02;;;;;;;1.58;49.41;102001.34;5040599;28;20260;-70
2021/01/09 01:54:52;;;;;;;2.30;0.80;;;;;;;1.44;49.49;102003.69;5039112;28;20033;-71
2021/01/09 01:57:17;;;;;;;0.93;0.30;;;;;;;1.32;50.01;102004.34;5036697;28;20394;-71
2021/01/09 01:59:43;;;;;;;2.70;0.60;;;;;;;1.41;50.04;101994.19;5026806;28;20647;-71
2021/01/09 02:02:10;;;;;;;2.85;0.88;;;;;;;1.38;50.02;101998.44;5020021;28;20029;-71
2021/01/09 02:04:36;;;;;;;2.80;0.98;;;;;;;1.29;50.33;102001.72;5036908;28;20048;-70
2021/01/09 02:07:08;;;;;;;1.52;0.75;;;;;;;1.24;50.29;102000.78;5004632;28;20482;-71
2021/01/09 02:09:40;;;;;;;2.97;1.10;;;;;;;1.22;50.31;102000.75;5020473;28;20025;-72
2021/01/09 02:12:18;;;;;;;2.88;0.98;;;;;;;1.24;50.36;102001.63;5037720;28;20516;-72
2021/01/09 02:14:57;;;;;;;2.55;0.85;;;;;;;1.24;50.23;102006.78;5021481;28;20029;-72
2021/01/09 02:17:23;;;;;;;12.35;3.15;;;;;;;1.25;50.30;102005.06;5004793;28;20033;-72
2021/01/09 02:19:50;;;;;;;5.75;1.88;;;;;;;1.31;50.29;102018.06;5039175;28;20025;-72
2021/01/09 02:22:17;;;;;;;2.55;1.02;;;;;;;1.31;50.54;102016.34;5021930;28;20103;-73
2021/01/09 02:24:44;;;;;;;3.67;0.90;;;;;;;1.35;50.35;102011.25;5023220;28;20044;-72
2021/01/09 02:27:10;;;;;;;3.13;0.90;;;;;;;1.48;50.17;102016.69;5039674;28;20586;-72
2021/01/09 02:29:44;;;;;;;3.05;0.70;;;;;;;1.41;49.89;102021.69;5020026;28;20112;-72
2021/01/09 02:32:10;;;;;;;3.67;0.93;;;;;;;1.18;50.31;102021.28;5037439;28;20089;-73
2021/01/09 02:34:48;;;;;;;2.35;1.08;;;;;;;1.11;50.33;102023.72;5021977;28;20096;-71
2021/01/09 02:37:13;;;;;;;2.55;0.98;;;;;;;1.02;50.90;102020.13;5022387;28;20067;-71
2021/01/09 02:39:39;;;;;;;3.60;1.02;;;;;;;1.03;50.64;102020.13;5024199;28;20504;-70
2021/01/09 02:42:05;;;;;;;2.38;1.10;;;;;;;1.14;50.53;102024.63;5041193;28;20394;-71
2021/01/09 02:44:31;;;;;;;1.88;0.95;;;;;;;1.08;50.48;102021.13;5040302;28;20033;-71
2021/01/09 02:46:57;;;;;;;2.70;0.95;;;;;;;1.02;50.69;102028.72;5038058;28;20049;-71
2021/01/09 02:49:22;;;;;;;1.90;0.80;;;;;;;1.02;50.91;102031.28;5039602;28;20583;-71
2021/01/09 02:51:48;;;;;;;2.70;0.73;;;;;;;1.12;50.92;102032.31;5041851;28;20056;-71
2021/01/09 02:54:13;;;;;;;2.47;0.70;;;;;;;1.22;50.79;102041.09;5038920;28;20210;-72
2021/01/09 02:56:39;;;;;;;1.70;0.77;;;;;;;1.28;50.64;102038.59;5023762;28;20061;-71
2021/01/09 02:59:05;;;;;;;2.13;0.90;;;;;;;1.22;50.61;102038.53;5024926;28;20405;-71
2021/01/09 03:01:30;;;;;;;1.33;0.45;;;;;;;1.10;50.64;102041.72;5023212;28;20517;-70
2021/01/09 03:03:59;;;;;;;1.52;0.75;;;;;;;1.12;50.63;102047.75;5022763;28;20055;-71
2021/01/09 03:06:25;;;;;;;2.88;0.70;;;;;;;1.17;50.62;102045.28;5019498;28;20107;-71
2021/01/09 03:08:51;;;;;;;3.90;0.60;;;;;;;1.03;50.73;102051.03;5037928;28;20060;-71
2021/01/09 03:11:17;;;;;;;2.33;0.90;;;;;;;1.16;50.96;102043.56;5036709;28;20044;-71
2021/01/09 03:13:43;;;;;;;2.67;0.70;;;;;;;1.21;50.86;102049.63;5019259;28;20033;-71
2021/01/09 03:16:08;;;;;;;4.43;0.80;;;;;;;1.20;50.66;102050.50;5022344;28;20120;-71
2021/01/09 03:18:34;;;;;;;2.10;0.57;;;;;;;1.27;50.56;102057.47;5044641;28;20093;-71
2021/01/09 03:20:59;;;;;;;2.95;0.95;;;;;;;1.20;50.37;102056.50;5046393;28;20036;-71
2021/01/09 03:23:25;;;;;;;3.38;0.85;;;;;;;1.17;50.01;102056.47;5021121;28;20029;-71
2021/01/09 03:25:50;;;;;;;2.58;0.93;;;;;;;0.95;50.07;102056.88;5021798;28;20056;-71
2021/01/09 03:28:16;;;;;;;2.35;0.80;;;;;;;0.89;50.19;102060.22;5021192;28;20037;-70
2021/01/09 03:30:42;;;;;;;1.88;1.27;;;;;;;0.60;50.65;102057.94;5038198;28;20026;-71
2021/01/09 03:33:07;;;;;;;2.80;0.77;;;;;;;0.39;51.15;102062.63;5022504;28;20041;-71
2021/01/09 03:35:33;;;;;;;1.65;0.77;;;;;;;0.37;51.16;102054.88;5004616;28;20080;-71
2021/01/09 03:37:58;;;;;;;2.47;0.95;;;;;;;0.44;51.02;102061.03;5020568;28;20501;-71
2021/01/09 03:40:24;;;;;;;2.45;0.82;;;;;;;0.36;51.09;102060.84;5038820;28;20048;-71
2021/01/09 03:42:49;;;;;;;2.15;1.25;;;;;;;0.24;51.15;102058.91;5036699;28;20059;-71
2021/01/09 03:45:15;;;;;;;4.22;0.95;;;;;;;0.22;50.95;102057.97;5007031;28;20022;-71
2021/01/09 03:47:40;;;;;;;5.03;0.70;;;;;;;0.11;51.24;102064.59;5023644;28;20089;-70
2021/01/09 03:50:06;;;;;;;1.60;0.60;;;;;;;0.03;51.38;102059.28;5037201;28;20035;-71
2021/01/09 03:52:32;;;;;;;3.13;1.08;;;;;;;0.01;51.42;102060.97;5018016;28;20068;-71
2021/01/09 03:54:57;;;;;;;2.45;0.70;;;;;;;-0.08;51.21;102062.44;5032615;28;20479;-71
2021/01/09 03:57:23;;;;;;;3.58;1.20;;;;;;;-0.19;51.57;102060.50;5033783;28;20048;-72
2021/01/09 03:59:49;;;;;;;5.15;1.08;;;;;;;-0.09;51.60;102058.13;5021279;28;20490;-71
2021/01/09 04:02:15;;;;;;;2.33;0.88;;;;;;;-0.10;51.46;102059.84;5035588;28;20053;-71
2021/01/09 04:04:41;;;;;;;1.80;0.85;;;;;;;-0.19;51.55;102063.06;5018634;28;20036;-71
2021/01/09 04:07:06;;;;;;;3.72;1.25;;;;;;;-0.29;51.39;102061.09;5035388;28;20029;-71
2021/01/09 04:09:32;;;;;;;3.30;0.82;;;;;;;-0.29;51.37;102066.22;5017753;28;20040;-71
2021/01/09 04:11:58;;;;;;;3.17;0.93;;;;;;;-0.42;51.44;102066.75;5035515;28;20037;-71
2021/01/09 04:14:23;;;;;;;5.25;1.15;;;;;;;-0.31;51.59;102072.16;5036325;28;20037;-71
2021/01/09 04:16:49;;;;;;;2.10;0.57;;;;;;;-0.32;51.68;102075.59;5019503;28;20037;-71
2021/01/09 04:19:14;;;;;;;2.97;0.98;;;;;;;-0.28;51.78;102074.81;5035035;28;20033;-71
2021/01/09 04:21:53;;;;;;;2.78;0.88;;;;;;;-0.28;51.56;102070.56;5001554;28;20151;-71
2021/01/09 04:24:20;;;;;;;4.25;1.17;;;;;;;-0.30;52.06;102069.66;5021750;28;20056;-71
2021/01/09 04:26:54;;;;;;;3.95;1.02;;;;;;;-0.23;52.12;102080.94;5034104;28;20088;-74
2021/01/09 04:29:20;;;;;;;2.35;0.75;;;;;;;-0.10;52.20;102076.94;5036744;28;20454;-74
2021/01/09 04:31:46;;;;;;;2.97;1.05;;;;;;;-0.25;52.78;102077.47;5034459;28;20033;-72
2021/01/09 04:34:12;;;;;;;2.20;0.85;;;;;;;-0.23;52.91;102076.66;5019346;28;20128;-73
2021/01/09 04:36:38;;;;;;;4.13;1.20;;;;;;;-0.13;52.69;102078.59;5019631;28;20495;-73
2021/01/09 04:39:03;;;;;;;4.53;1.15;;;;;;;-0.03;52.51;102073.72;5035827;28;20025;-73
2021/01/09 04:41:33;;;;;;;2.55;0.60;;;;;;;0.08;52.34;102077.41;5035089;28;20025;-73
2021/01/09 04:43:59;;;;;;;2.42;1.02;;;;;;;0.03;52.03;102087.56;5035804;28;20037;-73
2021/01/09 04:46:26;;;;;;;2.28;0.95;;;;;;;-0.03;52.00;102084.00;5018721;28;20037;-73
2021/01/09 04:48:52;;;;;;;5.97;1.08;;;;;;;-0.09;52.07;102083.84;5035012;28;20036;-73
2021/01/09 04:51:18;;;;;;;1.80;1.17;;;;;;;-0.14;52.18;102079.44;5020069;28;20033;-73
2021/01/09 04:53:44;;;;;;;2.22;0.98;;;;;;;-0.13;52.02;102083.75;5019407;28;20065;-71
2021/01/09 04:56:11;;;;;;;2.78;0.90;;;;;;;-0.09;52.06;102094.97;5003368;28;20490;-73
2021/01/09 04:58:38;;;;;;;3.13;1.02;;;;;;;-0.03;52.25;102094.28;5018246;28;20037;-72
2021/01/09 05:01:05;;;;;;;2.90;1.20;;;;;;;0.13;51.87;102093.78;5034250;28;20025;-72
2021/01/09 05:03:30;;;;;;;4.68;1.00;;;;;;;0.23;51.69;102093.16;5000137;28;20037;-72
2021/01/09 05:05:56;;;;;;;4.32;1.13;;;;;;;0.26;51.63;102098.38;5018926;28;20031;-73
2021/01/09 05:08:22;;;;;;;2.83;1.30;;;;;;;0.35;51.67;102105.44;4999146;28;20033;-73
2021/01/09 05:10:49;;;;;;;6.10;1.73;;;;;;;0.16;51.91;102101.56;5021934;28;20033;-73
2021/01/09 05:13:16;;;;;;;2.95;1.27;;;;;;;0.04;52.41;102106.44;5017248;28;20106;-72
2021/01/09 05:15:42;;;;;;;2.40;1.30;;;;;;;0.15;52.11;102104.97;5034630;28;20017;-73
2021/01/09 05:18:08;;;;;;;2.75;1.15;;;;;;;0.17;51.90;102113.59;5018965;28;20041;-72
2021/01/09 05:20:34;;;;;;;3.28;1.40;;;;;;;0.30;51.90;102113.84;5016840;28;20083;-72
2021/01/09 05:23:01;;;;;;;3.42;1.33;;;;;;;0.23;52.10;102121.47;5017554;28;20040;-72
2021/01/09 05:25:27;;;;;;;4.55;1.70;;;;;;;0.51;51.70;102124.63;4999097;28;20729;-72
2021/01/09 05:27:55;;;;;;;4.10;1.23;;;;;;;0.53;51.41;102133.25;5035389;28;20487;-73
2021/01/09 05:30:21;;;;;;;5.63;1.40;;;;;;;0.59;51.50;102128.25;5018417;28;20038;-72
2021/01/09 05:32:47;;;;;;;3.35;1.30;;;;;;;0.61;51.54;102134.31;5019943;28;20021;-73
2021/01/09 05:35:14;;;;;;;3.47;1.33;;;;;;;0.59;51.34;102135.97;5002370;28;20090;-73
2021/01/09 05:37:40;;;;;;;4.07;1.92;;;;;;;0.59;51.32;102138.53;5036012;28;20037;-72
2021/01/09 05:40:06;;;;;;;6.65;1.85;;;;;;;0.55;51.24;102134.16;5037092;28;20033;-72
2021/01/09 05:42:34;;;;;;;4.65;1.17;;;;;;;0.46;51.36;102136.53;5006142;28;20049;-72
2021/01/09 05:45:00;;;;;;;4.25;1.92;;;;;;;0.44;51.29;102138.19;5036283;28;20037;-72
2021/01/09 05:47:30;;;;;;;3.80;1.73;;;;;;;0.41;51.22;102138.13;5042279;28;20037;-73
2021/01/09 05:49:58;;;;;;;3.55;1.80;;;;;;;0.22;51.38;102127.41;5002484;28;20064;-72
2021/01/09 05:52:27;;;;;;;4.55;1.13;;;;;;;0.03;51.29;102130.38;5036385;28;20421;-73
2021/01/09 05:54:59;;;;;;;2.63;1.00;;;;;;;0.00;51.33;102141.47;5038315;28;20094;-73
2021/01/09 05:57:30;;;;;;;4.60;0.70;;;;;;;-0.10;51.57;102139.53;5035848;28;20084;-72
2021/01/09 06:00:00;;;;;;;2.65;1.35;;;;;;;-0.27;51.61;102130.50;5034223;28;20030;-72
2021/01/09 06:02:27;;;;;;;3.13;1.13;;;;;;;-0.43;52.01;102142.97;5019383;28;20037;-72
2021/01/09 06:04:59;;;;;;;1.73;0.60;;;;;;;-0.37;51.72;102145.69;5030996;28;20094;-73
2021/01/09 06:07:31;;;;;;;2.53;1.38;;;;;;;-0.42;51.60;102147.25;5001062;28;20035;-72
2021/01/09 06:10:16;;;;;;;2.97;1.08;;;;;;;-0.56;51.77;102144.31;5017273;28;20025;-72
2021/01/09 06:12:59;;;;;;;2.38;0.95;;;;;;;-0.42;51.63;102147.25;5033391;28;20084;-72
2021/01/09 06:15:29;;;;;;;4.93;1.42;;;;;;;-0.49;51.72;102149.63;5032335;28;20072;-72
2021/01/09 06:17:55;;;;;;;2.70;1.27;;;;;;;-0.51;51.62;102152.16;5034549;28;20045;-72
2021/01/09 06:20:21;;;;;;;2.35;0.82;;;;;;;-0.66;51.61;102152.63;5017608;28;20039;-72
2021/01/09 06:22:47;;;;;;;2.85;0.85;;;;;;;-0.72;52.05;102164.44;5038101;28;20064;-72
2021/01/09 06:25:14;;;;;;;3.42;1.25;;;;;;;-0.62;51.93;102162.13;5025329;28;20087;-72
2021/01/09 06:27:43;;;;;;;3.10;1.25;;;;;;;-0.69;51.68;102173.06;5020676;28;20033;-72
2021/01/09 06:30:10;;;;;;;3.63;1.10;;;;;;;-0.67;51.62;102170.56;5038342;28;20055;-72
2021/01/09 06:32:39;;;;;;;2.97;1.90;;;;;;;-0.61;51.79;102175.88;5023403;28;20053;-71
2021/01/09 06:35:07;;;;;;;3.25;1.52;;;;;;;-0.68;52.09;102177.41;5019006;28;20037;-72
2021/01/09 06:37:33;;;;;;;3.30;1.20;;;;;;;-0.70;51.73;102176.47;5027204;28;20037;-72
2021/01/09 06:39:59;;;;;;;2.55;1.48;;;;;;;-0.66;51.95;102178.31;5048079;28;20061;-72
2021/01/09 06:42:26;;;;;;;2.75;1.50;;;;;;;-0.83;52.17;102180.41;5041514;28;20033;-72
2021/01/09 06:44:53;;;;;;;6.03;2.38;;;;;;;-0.85;52.05;102176.91;5034374;28;20025;-72
2021/01/09 06:47:29;;;;;;;2.30;1.40;;;;;;;-0.73;51.98;102184.06;5025670;28;20542;-72
2021/01/09 06:50:18;;;;;;;3.55;0.93;;;;;;;-0.78;51.90;102177.94;5021874;28;20517;-72
2021/01/09 06:52:54;;;;;;;7.03;1.05;;;;;;;-0.92;52.13;102184.41;5006411;28;20038;-72
2021/01/09 06:55:39;;;;;;;4.60;2.38;;;;;;;-1.02;52.30;102185.81;5007515;28;20380;-72
2021/01/09 06:58:09;;;;;;;5.70;1.88;;;;;;;-1.08;52.57;102176.22;5036748;28;20060;-72
2021/01/09 07:00:37;;;;;;;3.05;1.08;;;;;;;-0.97;52.11;102186.84;5033074;28;20112;-72
2021/01/09 07:03:17;;;;;;;4.97;1.75;;;;;;;-0.96;51.83;102183.44;5020444;28;20048;-72
2021/01/09 07:05:50;;;;;;;6.00;1.65;;;;;;;-1.04;51.72;102196.06;5034153;28;20494;-72
2021/01/09 07:08:30;;;;;;;5.57;1.58;;;;;;;-1.05;51.67;102189.16;5020233;28;20095;-72
2021/01/09 07:11:02;;;;;;;8.93;2.25;;;;;;;-1.18;51.95;102193.03;5021835;28;20037;-72
2021/01/09 07:13:28;;;;;;;5.28;2.40;;;;;;;-1.21;52.14;102192.09;5038093;28;20390;-72
2021/01/09 07:16:14;;;;;;;3.97;1.15;;;;;;;-1.26;52.49;102196.22;5035854;28;20474;-72
2021/01/09 07:18:49;;;;;;;5.53;2.33;;;;;;;-0.93;51.89;102192.91;5041124;28;20124;-72
2021/01/09 07:21:19;;;;;;;3.78;1.60;;;;;;;-0.92;51.84;102194.69;5020920;28;20091;-72
2021/01/09 07:23:53;;;;;;;4.63;1.23;;;;;;;-0.99;51.50;102197.06;5005205;28;20063;-72
2021/01/09 07:26:20;;;;;;;5.00;1.50;;;;;;;-1.05;51.80;102203.72;5035631;28;20029;-72
2021/01/09 07:28:48;;;;;;;3.08;1.40;;;;;;;-1.08;51.52;102203.59;5018253;28;20048;-72
2021/01/09 07:31:14;;;;;;;4.53;1.98;;;;;;;-1.22;51.67;102198.91;5035359;28;20594;-72
2021/01/09 07:33:42;;;;;;;4.68;1.98;;;;;;;-1.33;52.01;102194.25;5021515;28;20091;-72
2021/01/09 07:36:12;;;;;;;5.25;1.80;;;;;;;-1.31;52.05;102205.44;5019403;28;20025;-72
2021/01/09 07:38:45;;;;;;;3.08;1.45;;;;;;;-1.17;51.71;102211.88;5032088;28;20514;-71
2021/01/09 07:41:31;;;;;;;4.43;1.95;;;;;;;-1.11;51.60;102213.75;5037288;28;20049;-71
2021/01/09 07:44:14;;;;;;;4.65;2.30;;;;;;;-1.33;51.91;102213.13;5031597;28;20044;-72
2021/01/09 07:46:49;;;;;;;2.33;1.15;;;;;;;-1.39;52.26;102216.34;5031806;28;20032;-71
2021/01/09 07:49:28;;;;;;;4.50;2.22;;;;;;;-1.48;52.56;102213.50;5019164;28;20036;-71
2021/01/09 07:52:00;;;;;;;5.25;2.20;;;;;;;-1.27;52.16;102222.69;5019300;28;20052;-72
2021/01/09 07:54:38;;;;;;;5.82;2.00;;;;;;;-1.14;51.89;102214.53;5037960;28;20033;-72
2021/01/09 07:57:19;;;;;;;3.83;1.58;;;;;;;-1.11;51.92;102214.59;5018565;28;20076;-72
2021/01/09 07:59:54;;;;;;;4.07;1.67;;;;;;;-1.11;51.96;102206.91;5033660;28;20100;-72
2021/01/09 08:02:25;;;;;;;4.35;1.45;;;;;;;-1.09;51.84;102212.97;5036210;28;20229;-72
2021/01/09 08:05:22;;;;;;;3.05;1.85;;;;;;;-1.07;52.01;102216.44;5036913;28;20072;-72
2021/01/09 08:07:47;;;;;;;2.63;1.40;;;;;;;-1.11;52.15;102217.19;5027246;28;20064;-72
2021/01/09 08:10:21;;;;;;;4.80;1.67;;;;;;;-1.05;52.55;102217.41;5043050;28;20041;-72
2021/01/09 08:12:52;;;;;;;5.55;2.42;;;;;;;-0.85;52.55;102217.13;5038299;28;20075;-72
2021/01/09 08:15:18;;;;;;;4.50;1.63;;;;;;;-0.76;51.96;102223.38;5022295;28;20133;-72
2021/01/09 08:17:43;;;;;;;3.20;1.27;;;;;;;-0.89;51.93;102226.41;5038373;28;20045;-72
2021/01/09 08:20:11;;;;;;;4.57;1.33;;;;;;;-0.73;52.31;102232.88;5033553;28;20033;-72
2021/01/09 08:22:58;;;;;;;5.57;1.83;;;;;;;-0.62;52.33;102231.47;5015778;28;20079;-70
2021/01/09 08:25:26;;;;;;;4.03;1.08;;;;;;;0.23;50.63;102226.88;5017094;28;20541;-70
2021/01/09 08:27:58;;;;;;;3.60;1.80;;;;;;;1.39;49.44;102226.84;5033727;28;20482;-70
2021/01/09 08:30:27;;;;;;;4.22;2.30;;;;;;;0.78;48.17;102226.44;5032553;28;20033;-70
2021/01/09 08:33:08;;;;;;;5.07;2.13;;;;;;;1.54;46.83;102236.63;5016408;28;20048;-72
2021/01/09 08:35:48;;;;;;;8.07;2.15;;;;;;;2.19;46.37;102229.22;5015108;28;20055;-73
2021/01/09 08:38:14;;;;;;;4.90;2.28;;;;;;;1.84;46.89;102237.22;5021286;28;20047;-72
2021/01/09 08:40:42;;;;;;;4.95;2.88;;;;;;;1.42;47.04;102238.13;5030654;28;20092;-70
2021/01/09 08:43:13;;;;;;;13.55;5.70;;;;;;;0.97;47.73;102243.16;4999199;28;20025;-70
2021/01/09 08:45:47;;;;;;;10.82;5.43;;;;;;;0.37;49.05;102239.22;5011760;28;20049;-71
2021/01/09 08:48:19;;;;;;;13.63;6.63;;;;;;;0.53;49.35;102241.31;5016718;28;20041;-71
2021/01/09 08:50:59;;;;;;;14.70;4.82;;;;;;;0.08;50.43;102247.06;5016160;28;20110;-71
2021/01/09 08:53:27;;;;;;;12.38;5.22;;;;;;;-0.24;51.89;102249.63;5035730;28;20044;-71
2021/01/09 08:56:01;;;;;;;10.45;4.65;;;;;;;-0.01;52.29;102246.84;5035802;28;20120;-71
2021/01/09 08:58:30;;;;;;;8.73;3.47;;;;;;;0.84;51.23;102258.34;5019064;28;20059;-71
2021/01/09 09:00:56;;;;;;;7.20;4.18;;;;;;;2.09;49.39;102248.84;5033459;28;20421;-71
2021/01/09 09:03:23;;;;;;;6.13;3.45;;;;;;;3.23;46.69;102241.94;5024154;28;20033;-71
2021/01/09 09:05:50;;;;;;;6.10;2.85;;;;;;;4.06;43.39;102251.47;5018884;28;20029;-71
2021/01/09 09:08:16;;;;;;;5.43;2.65;;;;;;;4.37;40.67;102252.59;5020998;28;20091;-71
2021/01/09 09:10:41;;;;;;;5.75;2.75;;;;;;;4.83;41.83;102255.53;5018889;28;20065;-71
2021/01/09 09:13:22;;;;;;;2.92;1.83;;;;;;;4.66;43.10;102259.72;5035453;28;20514;-71
2021/01/09 09:15:49;;;;;;;4.50;2.67;;;;;;;4.94;40.73;102262.50;5034786;28;20111;-71
2021/01/09 09:18:15;;;;;;;3.70;2.08;;;;;;;4.91;42.29;102259.91;5002305;28;20038;-71
2021/01/09 09:20:47;;;;;;;5.45;2.50;;;;;;;5.09;39.66;102267.78;5028014;28;20125;-71
2021/01/09 09:23:20;;;;;;;4.75;2.95;;;;;;;5.07;40.00;102266.06;5039123;28;20028;-71
2021/01/09 09:25:45;;;;;;;7.13;1.98;;;;;;;5.29;39.05;102278.25;4999566;28;20068;-71
2021/01/09 09:28:11;;;;;;;2.85;1.60;;;;;;;5.01;41.09;102277.22;5038081;28;20061;-71
2021/01/09 09:30:37;;;;;;;4.78;1.67;;;;;;;4.57;41.21;102277.78;5021735;28;20053;-71
2021/01/09 09:33:14;;;;;;;4.90;2.55;;;;;;;4.27;41.45;102279.25;5032286;28;20044;-71
2021/01/09 09:35:41;;;;;;;4.53;2.53;;;;;;;3.87;41.90;102281.44;5032522;28;20056;-71
2021/01/09 09:38:10;;;;;;;4.65;2.33;;;;;;;3.53;42.71;102281.06;5015404;28;20076;-71
2021/01/09 09:40:37;;;;;;;8.30;2.15;;;;;;;3.28;44.56;102281.59;5033147;28;20034;-71
2021/01/09 09:43:16;;;;;;;5.70;3.13;;;;;;;3.32;44.89;102280.84;5014571;28;20029;-71
2021/01/09 09:46:03;;;;;;;15.32;7.75;;;;;;;3.11;45.14;102287.44;5031263;28;20642;-71
2021/01/09 09:48:37;;;;;;;13.05;6.60;;;;;;;3.16;45.83;102283.19;5014937;28;20269;-71
2021/01/09 09:51:12;;;;;;;15.95;7.07;;;;;;;3.72;45.04;102284.75;5031187;28;20052;-71
2021/01/09 09:53:40;;;;;;;12.63;7.15;;;;;;;4.24;43.17;102281.81;5035509;28;20030;-72
2021/01/09 09:56:14;;;;;;;14.00;7.07;;;;;;;4.99;41.47;102282.44;5017939;28;20018;-70
2021/01/09 09:58:40;;;;;;;12.23;4.80;;;;;;;5.10;41.42;102277.31;5016716;28;20105;-71
2021/01/09 10:01:16;;;;;;;15.27;5.97;;;;;;;5.12;41.82;102274.72;5024256;28;20056;-72
2021/01/09 10:03:42;;;;;;;6.93;3.55;;;;;;;4.66;42.21;102280.44;5029743;28;20028;-72
2021/01/09 10:06:08;;;;;;;7.13;3.22;;;;;;;4.25;43.31;102280.09;5044473;28;20025;-71
2021/01/09 10:08:33;;;;;;;6.50;3.38;;;;;;;4.12;43.74;102281.69;5022541;28;20350;-71
2021/01/09 10:10:59;;;;;;;7.95;2.80;;;;;;;3.86;45.17;102287.50;5022409;28;20128;-71
2021/01/09 10:13:25;;;;;;;5.68;2.55;;;;;;;3.83;45.19;102282.31;5039076;28;20450;-71
2021/01/09 10:15:51;;;;;;;7.40;3.20;;;;;;;3.73;44.92;102283.03;5021226;28;20090;-71
2021/01/09 10:18:16;;;;;;;4.38;2.42;;;;;;;3.93;45.19;102286.69;5018324;28;20045;-71
2021/01/09 10:20:42;;;;;;;5.35;3.08;;;;;;;4.27;44.85;102283.56;5035340;28;20036;-71
2021/01/09 10:23:07;;;;;;;4.40;2.90;;;;;;;4.38;43.21;102287.13;5019243;28;20030;-71
2021/01/09 10:25:33;;;;;;;8.25;3.58;;;;;;;4.21;44.46;102289.56;5019186;28;20022;-71
2021/01/09 10:27:59;;;;;;;10.68;3.00;;;;;;;4.25;44.27;102275.78;5038220;28;20064;-71
2021/01/09 10:30:24;;;;;;;9.13;3.05;;;;;;;4.33;43.85;102278.47;5038021;28;20089;-71
2021/01/09 10:32:50;;;;;;;26.17;10.10;;;;;;;4.29;43.44;102280.13;5034739;28;20059;-71
2021/01/09 10:35:15;;;;;;;12.70;5.82;;;;;;;4.15;44.12;102287.78;5016482;28;20079;-73
2021/01/09 10:37:41;;;;;;;26.05;10.95;;;;;;;3.98;43.99;102284.16;5020230;28;20061;-71
2021/01/09 10:40:07;;;;;;;7.70;4.80;;;;;;;3.97;44.39;102280.72;5020870;28;20040;-71
2021/01/09 10:42:33;;;;;;;12.35;4.25;;;;;;;4.07;44.70;102275.63;5034303;28;20033;-71
2021/01/09 10:44:58;;;;;;;9.55;3.50;;;;;;;4.54;43.96;102276.06;5036297;28;20029;-71
2021/01/09 10:47:24;;;;;;;6.68;3.00;;;;;;;5.11;42.51;102279.03;5037669;28;20037;-71
2021/01/09 10:49:50;;;;;;;6.43;1.67;;;;;;;5.55;41.74;102274.91;5036881;28;20032;-72
2021/01/09 10:52:15;;;;;;;3.67;1.38;;;;;;;5.57;40.24;102279.25;5037102;28;20093;-71
2021/01/09 10:54:41;;;;;;;4.15;1.80;;;;;;;5.12;42.22;102278.16;5034036;28;20040;-71
2021/01/09 10:57:06;;;;;;;3.30;1.60;;;;;;;5.13;41.74;102282.50;5016315;28;20040;-71
2021/01/09 10:59:32;;;;;;;2.13;1.05;;;;;;;4.84;42.52;102279.72;5036143;28;20045;-71
2021/01/09 11:01:57;;;;;;;3.33;1.65;;;;;;;4.51;43.45;102275.16;5022432;28;20041;-70
2021/01/09 11:04:24;;;;;;;4.63;1.85;;;;;;;4.49;43.54;102279.44;5020517;28;20052;-71
2021/01/09 11:06:49;;;;;;;2.42;1.17;;;;;;;4.70;43.15;102279.63;5016936;28;20079;-71
2021/01/09 11:09:15;;;;;;;2.85;1.33;;;;;;;4.31;43.91;102278.44;5039447;28;20033;-71
2021/01/09 11:11:46;;;;;;;1.92;0.90;;;;;;;4.54;44.13;102277.75;5037548;28;20036;-71
2021/01/09 11:14:12;;;;;;;3.33;1.30;;;;;;;4.18;44.24;102284.34;5021937;28;20041;-71
2021/01/09 11:16:37;;;;;;;2.15;1.00;;;;;;;4.14;43.98;102274.81;5023871;28;20099;-71
2021/01/09 11:19:03;;;;;;;2.78;1.63;;;;;;;4.33;44.23;102281.91;5039175;28;20041;-71
2021/01/09 11:21:28;;;;;;;3.33;1.75;;;;;;;4.27;44.35;102281.84;5003219;28;20056;-71
2021/01/09 11:23:54;;;;;;;5.50;1.55;;;;;;;4.14;45.13;102275.72;5033570;28;20071;-71
2021/01/09 11:26:24;;;;;;;5.85;1.58;;;;;;;4.18;45.23;102277.44;5037943;28;20025;-71
2021/01/09 11:28:51;;;;;;;4.32;2.00;;;;;;;4.27;44.09;102279.25;5017535;28;20654;-71
2021/01/09 11:31:16;;;;;;;3.10;1.50;;;;;;;4.34;44.27;102278.47;5022894;28;20037;-71
2021/01/09 11:33:42;;;;;;;5.35;1.50;;;;;;;4.38;44.94;102290.56;5035311;28;20100;-71